createdAt,value
2023-02-06T00:00:50.907Z,163.20
2023-02-06T00:03:37.569Z,147.10
2023-02-06T00:06:04.306Z,153.80
2023-02-06T00:08:31.122Z,144.30
2023-02-06T00:10:57.712Z,157.60
2023-02-06T00:13:24.277Z,172.20
2023-02-06T00:15:50.934Z,168.00
2023-02-06T00:18:17.637Z,162.70
2023-02-06T00:20:44.176Z,175.10
2023-02-06T00:23:11.341Z,166.60
2023-02-06T00:25:38.055Z,152.60
2023-02-06T00:28:04.968Z,162.50
2023-02-06T00:30:31.639Z,153.20
2023-02-06T00:32:58.197Z,172.90
2023-02-06T00:35:25.034Z,171.00
2023-02-06T00:37:51.702Z,155.50
2023-02-06T00:40:18.412Z,168.40
2023-02-06T00:42:45.012Z,163.50
2023-02-06T00:45:11.563Z,151.90
2023-02-06T00:47:38.222Z,147.10
2023-02-06T00:50:05.612Z,146.40
2023-02-06T00:52:32.194Z,137.70
2023-02-06T00:54:58.778Z,129.00
2023-02-06T00:57:25.324Z,125.30
2023-02-06T00:59:53.754Z,121.20
2023-02-06T01:02:20.939Z,117.00
2023-02-06T01:04:47.480Z,129.50
2023-02-06T01:07:14.095Z,127.10
2023-02-06T01:09:40.952Z,128.50
2023-02-06T01:12:07.621Z,138.40
2023-02-06T01:14:34.178Z,128.10
2023-02-06T01:17:00.711Z,128.60
2023-02-06T01:19:27.266Z,132.50
2023-02-06T01:21:53.763Z,125.10
2023-02-06T01:24:20.746Z,119.90
2023-02-06T01:26:47.222Z,123.50
2023-02-06T01:29:13.774Z,128.10
2023-02-06T01:31:40.352Z,126.30
2023-02-06T01:34:07.519Z,124.10
2023-02-06T01:36:34.121Z,128.00
2023-02-06T01:39:00.731Z,120.60
2023-02-06T01:41:27.419Z,126.30
2023-02-06T01:44:07.488Z,120.60
2023-02-06T01:46:34.097Z,131.90
2023-02-06T01:49:01.057Z,133.70
2023-02-06T01:51:28.853Z,133.40
2023-02-06T01:54:02.637Z,136.80
2023-02-06T01:56:38.110Z,146.40
2023-02-06T01:59:04.804Z,143.80
2023-02-06T02:01:32.200Z,146.70
2023-02-06T02:04:08.639Z,131.90
2023-02-06T02:06:35.389Z,123.10
2023-02-06T02:09:03.299Z,126.70
2023-02-06T02:11:37.199Z,115.30
2023-02-06T02:14:07.564Z,116.90
2023-02-06T02:16:51.753Z,119.30
2023-02-06T02:19:30.211Z,100.00
2023-02-06T02:22:23.592Z,109.50
2023-02-06T02:25:21.042Z,114.80
2023-02-06T02:28:33.740Z,118.70
2023-02-06T02:31:55.741Z,128.00
2023-02-06T02:35:01.840Z,116.70
2023-02-06T02:38:07.986Z,129.00
2023-02-06T02:40:55.519Z,146.80
2023-02-06T02:44:05.576Z,131.40
2023-02-06T02:46:42.857Z,148.90
2023-02-06T02:49:20.460Z,144.70
2023-02-06T02:51:48.592Z,130.70
2023-02-06T02:54:15.138Z,136.30
2023-02-06T02:56:41.951Z,142.00
2023-02-06T02:59:28.861Z,156.80
2023-02-06T03:02:03.678Z,157.10
2023-02-06T03:04:37.921Z,160.60
2023-02-06T03:07:09.651Z,151.80
2023-02-06T03:09:46.169Z,157.80
2023-02-06T03:12:41.836Z,150.80
2023-02-06T03:15:43.359Z,143.30
2023-02-06T03:18:22.587Z,146.10
2023-02-06T03:20:49.444Z,152.30
2023-02-06T03:23:23.470Z,150.60
2023-02-06T03:25:52.735Z,152.40
2023-02-06T03:28:35.711Z,145.80
2023-02-06T03:31:06.799Z,146.60
2023-02-06T03:33:39.967Z,148.70
2023-02-06T03:36:09.415Z,152.60
2023-02-06T03:38:36.189Z,144.20
2023-02-06T03:41:03.536Z,148.40
2023-02-06T03:43:30.231Z,156.20
2023-02-06T03:46:02.392Z,150.90
2023-02-06T03:48:40.320Z,156.80
2023-02-06T03:51:17.386Z,144.50
2023-02-06T03:53:45.201Z,147.80
2023-02-06T03:56:37.877Z,137.40
2023-02-06T03:59:04.581Z,153.60
2023-02-06T04:01:31.638Z,157.20
2023-02-06T04:03:58.462Z,169.20
2023-02-06T04:06:25.175Z,160.90
2023-02-06T04:08:51.774Z,158.00
2023-02-06T04:11:18.406Z,152.30
2023-02-06T04:13:47.468Z,142.40
2023-02-06T04:16:13.973Z,137.90
2023-02-06T04:18:40.541Z,137.20
2023-02-06T04:21:07.456Z,130.10
2023-02-06T04:23:34.301Z,133.00
2023-02-06T04:26:01.144Z,140.70
2023-02-06T04:28:27.790Z,130.70
2023-02-06T04:30:54.415Z,124.20
2023-02-06T04:33:21.067Z,137.10
2023-02-06T04:35:48.389Z,130.80
2023-02-06T04:38:15.123Z,129.70
2023-02-06T04:40:42.111Z,127.50
2023-02-06T04:43:08.947Z,127.50
2023-02-06T04:45:35.931Z,130.30
2023-02-06T04:48:02.725Z,134.90
2023-02-06T04:50:31.287Z,135.20
2023-02-06T04:52:58.029Z,125.60
2023-02-06T04:55:24.546Z,135.30
2023-02-06T04:57:51.146Z,116.00
2023-02-06T05:00:17.860Z,129.70
2023-02-06T05:02:44.412Z,130.90
2023-02-06T05:05:11.228Z,123.20
2023-02-06T05:07:37.839Z,131.40
2023-02-06T05:10:05.168Z,124.00
2023-02-06T05:12:31.776Z,126.40
2023-02-06T05:14:58.310Z,125.80
2023-02-06T05:17:24.900Z,128.90
2023-02-06T05:19:51.461Z,117.00
2023-02-06T05:22:18.042Z,131.30
2023-02-06T05:24:44.649Z,123.80
2023-02-06T05:27:11.168Z,133.80
2023-02-06T05:29:37.831Z,123.60
2023-02-06T05:32:04.646Z,122.60
2023-02-06T05:34:31.206Z,121.70
2023-02-06T05:36:57.836Z,115.70
2023-02-06T05:39:25.947Z,125.20
2023-02-06T05:41:52.522Z,113.50
2023-02-06T05:44:19.107Z,118.10
2023-02-06T05:46:47.691Z,114.10
2023-02-06T05:49:14.796Z,115.10
2023-02-06T05:51:41.330Z,112.60
2023-02-06T05:54:07.935Z,114.30
2023-02-06T05:56:34.500Z,103.50
2023-02-06T05:59:01.449Z,111.60
2023-02-06T06:01:28.571Z,110.90
2023-02-06T06:03:55.825Z,107.30
2023-02-06T06:06:22.411Z,107.60
2023-02-06T06:08:48.880Z,111.40
2023-02-06T06:11:15.452Z,122.50
2023-02-06T06:13:42.009Z,116.30
2023-02-06T06:16:08.549Z,130.20
2023-02-06T06:18:35.182Z,133.60
2023-02-06T06:21:01.812Z,136.10
2023-02-06T06:23:28.431Z,126.90
2023-02-06T06:25:54.999Z,119.60
2023-02-06T06:28:21.504Z,117.70
2023-02-06T06:30:48.022Z,102.50
2023-02-06T06:33:15.828Z,109.60
2023-02-06T06:35:42.397Z,126.30
2023-02-06T06:38:09.025Z,155.70
2023-02-06T06:40:35.584Z,199.20
2023-02-06T06:43:03.334Z,194.00
2023-02-06T06:45:29.885Z,181.00
2023-02-06T06:47:56.806Z,178.70
2023-02-06T06:50:23.577Z,199.00
2023-02-06T06:52:50.113Z,206.70
2023-02-06T06:55:18.844Z,247.10
2023-02-06T06:57:46.634Z,239.60
2023-02-06T07:00:14.802Z,232.20
2023-02-06T07:02:42.415Z,232.60
2023-02-06T07:05:09.655Z,246.20
2023-02-06T07:07:38.342Z,203.10
2023-02-06T07:10:07.005Z,191.60
2023-02-06T07:12:33.762Z,224.40
2023-02-06T07:15:00.375Z,224.80
2023-02-06T07:17:27.020Z,218.00
2023-02-06T07:19:53.651Z,190.00
2023-02-06T07:22:21.011Z,207.80
2023-02-06T07:24:48.172Z,198.50
2023-02-06T07:27:15.380Z,212.00
2023-02-06T07:29:42.223Z,227.60
2023-02-06T07:32:09.508Z,263.50
2023-02-06T07:34:36.276Z,272.30
2023-02-06T07:37:04.056Z,254.80
2023-02-06T07:39:30.735Z,257.30
2023-02-06T07:41:57.223Z,257.60
2023-02-06T07:44:23.784Z,251.60
2023-02-06T07:46:52.157Z,266.20
2023-02-06T07:49:18.711Z,287.70
2023-02-06T07:51:45.846Z,306.00
2023-02-06T07:54:12.705Z,246.80
2023-02-06T07:56:39.680Z,242.90
2023-02-06T07:59:07.162Z,258.70
2023-02-06T08:01:33.912Z,276.50
2023-02-06T08:04:00.680Z,296.00
2023-02-06T08:06:27.436Z,314.90
2023-02-06T08:08:55.789Z,274.30
2023-02-06T08:11:25.456Z,271.10
2023-02-06T08:13:52.107Z,269.60
2023-02-06T08:16:21.703Z,238.40
2023-02-06T08:18:48.867Z,254.00
2023-02-06T08:21:20.189Z,190.80
2023-02-06T08:23:47.916Z,142.00
2023-02-06T08:26:18.180Z,117.20
2023-02-06T08:28:46.929Z,126.40
2023-02-06T08:31:18.915Z,98.80
2023-02-06T08:33:45.994Z,90.90
2023-02-06T08:36:14.109Z,80.10
2023-02-06T08:38:41.332Z,81.00
2023-02-06T08:41:21.849Z,80.90
2023-02-06T08:43:50.459Z,78.30
2023-02-06T08:46:19.219Z,75.90
2023-02-06T08:48:46.127Z,79.80
2023-02-06T08:51:13.790Z,73.00
2023-02-06T08:53:40.764Z,73.50
2023-02-06T08:56:11.566Z,69.20
2023-02-06T08:58:38.940Z,67.20
2023-02-06T09:01:13.061Z,66.70
2023-02-06T09:03:41.158Z,70.80
2023-02-06T09:06:10.226Z,70.70
2023-02-06T09:08:38.910Z,70.20
2023-02-06T09:11:07.110Z,65.80
2023-02-06T09:13:34.225Z,71.10
2023-02-06T09:16:00.988Z,69.70
2023-02-06T09:18:27.669Z,67.20
2023-02-06T09:21:10.868Z,63.20
2023-02-06T09:23:39.433Z,65.30
2023-02-06T09:26:06.224Z,61.00
2023-02-06T09:28:33.376Z,60.70
2023-02-06T09:31:00.066Z,67.50
2023-02-06T09:33:26.915Z,69.20
2023-02-06T09:36:03.455Z,63.60
2023-02-06T09:38:30.599Z,64.50
2023-02-06T09:40:59.279Z,62.40
2023-02-06T09:43:26.469Z,65.80
2023-02-06T09:46:00.299Z,65.30
2023-02-06T09:48:30.185Z,54.80
2023-02-06T09:51:21.750Z,59.50
2023-02-06T09:53:57.112Z,70.70
2023-02-06T09:56:36.918Z,68.60
2023-02-06T09:59:21.561Z,68.40
2023-02-06T10:02:05.603Z,68.80
2023-02-06T10:04:52.709Z,79.70
2023-02-06T10:07:32.606Z,59.20
2023-02-06T10:10:05.540Z,61.50
2023-02-06T10:12:40.552Z,88.50
2023-02-06T10:15:20.251Z,62.00
2023-02-06T10:17:57.389Z,77.70
2023-02-06T10:20:33.529Z,69.60
2023-02-06T10:23:18.086Z,63.70
2023-02-06T10:26:07.362Z,68.70
2023-02-06T10:28:34.800Z,31.90
2023-02-06T10:31:38.579Z,44.90
2023-02-06T10:34:19.976Z,33.00
2023-02-06T10:37:08.180Z,28.10
2023-02-06T10:39:49.972Z,30.10
2023-02-06T10:42:55.965Z,29.10
2023-02-06T10:45:50.288Z,38.00
2023-02-06T10:48:33.445Z,44.20
2023-02-06T10:51:14.314Z,23.40
2023-02-06T10:54:33.354Z,19.20
2023-02-06T10:57:00.366Z,18.00
2023-02-06T10:59:42.941Z,15.50
2023-02-06T11:02:11.177Z,18.20
2023-02-06T11:04:45.328Z,17.50
2023-02-06T11:07:26.926Z,15.70
2023-02-06T11:09:53.877Z,14.90
2023-02-06T11:12:32.975Z,15.10
2023-02-06T11:15:07.061Z,18.30
2023-02-06T11:17:34.146Z,23.50
2023-02-06T11:20:22.606Z,17.90
2023-02-06T11:22:52.995Z,19.40
2023-02-06T11:25:33.309Z,18.70
2023-02-06T11:28:00.258Z,18.90
2023-02-06T11:30:41.610Z,22.00
2023-02-06T11:33:19.816Z,17.60
2023-02-06T11:36:00.604Z,27.10
2023-02-06T11:38:29.812Z,21.50
2023-02-06T11:41:17.336Z,23.10
2023-02-06T11:43:46.335Z,24.10
2023-02-06T11:46:23.126Z,26.20
2023-02-06T11:48:55.476Z,23.70
2023-02-06T11:51:45.260Z,26.00
2023-02-06T11:54:21.729Z,22.90
2023-02-06T11:57:09.432Z,21.70
2023-02-06T11:59:38.278Z,23.00
2023-02-06T12:02:29.906Z,20.60
2023-02-06T12:05:01.704Z,20.50
2023-02-06T12:07:37.898Z,21.70
2023-02-06T12:10:17.111Z,24.20
2023-02-06T12:12:49.160Z,19.50
2023-02-06T12:15:45.414Z,20.60
2023-02-06T12:18:20.473Z,16.90
2023-02-06T12:21:03.451Z,18.90
2023-02-06T12:23:48.647Z,19.40
2023-02-06T12:26:20.294Z,21.70
2023-02-06T12:29:08.969Z,25.00
2023-02-06T12:31:42.369Z,23.60
2023-02-06T12:34:59.788Z,21.80
2023-02-06T12:37:47.600Z,22.10
2023-02-06T12:40:43.103Z,21.70
2023-02-06T12:43:15.351Z,20.50
2023-02-06T12:45:49.832Z,21.70
2023-02-06T12:48:18.422Z,20.50
2023-02-06T12:51:12.859Z,19.30
2023-02-06T12:53:46.026Z,21.00
2023-02-06T12:56:32.651Z,21.70
2023-02-06T12:59:14.708Z,18.30
2023-02-06T13:01:56.277Z,22.30
2023-02-06T13:04:27.410Z,20.10
2023-02-06T13:06:58.969Z,21.80
2023-02-06T13:09:31.718Z,19.40
2023-02-06T13:12:20.318Z,20.50
2023-02-06T13:14:59.321Z,19.10
2023-02-06T13:17:38.654Z,21.50
2023-02-06T13:20:14.960Z,20.50
2023-02-06T13:22:53.844Z,19.70
2023-02-06T13:25:31.982Z,19.80
2023-02-06T13:28:22.017Z,20.60
2023-02-06T13:30:59.398Z,18.50
2023-02-06T13:33:38.921Z,22.30
2023-02-06T13:36:16.689Z,21.90
2023-02-06T13:38:43.327Z,24.40
2023-02-06T13:41:15.671Z,20.60
2023-02-06T13:43:58.404Z,23.30
2023-02-06T13:46:32.789Z,19.70
2023-02-06T13:49:20.283Z,21.30
2023-02-06T13:52:18.302Z,23.20
2023-02-06T13:55:06.471Z,20.80
2023-02-06T13:58:12.251Z,22.00
2023-02-06T14:00:42.548Z,21.30
2023-02-06T14:03:33.460Z,25.40
2023-02-06T14:06:15.078Z,22.90
2023-02-06T14:09:16.136Z,21.10
2023-02-06T14:12:43.780Z,22.30
2023-02-06T14:15:35.742Z,27.20
2023-02-06T14:18:43.026Z,21.90
2023-02-06T14:21:34.740Z,20.70
2023-02-06T14:24:16.367Z,20.80
2023-02-06T14:27:26.871Z,28.20
2023-02-06T14:30:32.868Z,20.80
2023-02-06T14:33:53.311Z,23.70
2023-02-06T14:36:53.462Z,25.50
2023-02-06T14:39:47.430Z,26.40
2023-02-06T14:42:38.049Z,25.10
2023-02-06T14:45:18.078Z,22.80
2023-02-06T14:47:44.608Z,22.50
2023-02-06T14:50:27.229Z,25.90
2023-02-06T14:53:02.194Z,32.80
2023-02-06T14:55:33.237Z,26.70
2023-02-06T14:57:59.921Z,54.30
2023-02-06T15:00:28.044Z,52.70
2023-02-06T15:03:18.653Z,75.30
2023-02-06T15:05:47.318Z,69.60
2023-02-06T15:08:19.554Z,47.80
2023-02-06T15:10:46.762Z,30.30
2023-02-06T15:13:34.347Z,59.20
2023-02-06T15:16:08.702Z,84.60
2023-02-06T15:18:36.354Z,84.00
2023-02-06T15:21:06.099Z,36.30
2023-02-06T15:24:23.572Z,41.10
2023-02-06T15:27:06.152Z,35.30
2023-02-06T15:29:32.695Z,58.90
2023-02-06T15:32:21.138Z,33.80
2023-02-06T15:34:47.692Z,32.90
2023-02-06T15:37:22.588Z,31.70
2023-02-06T15:39:49.733Z,37.40
2023-02-06T15:42:16.436Z,54.80
2023-02-06T15:44:43.120Z,206.90
2023-02-06T15:47:14.365Z,124.30
2023-02-06T15:49:47.372Z,92.40
2023-02-06T15:52:34.663Z,86.30
2023-02-06T15:55:02.301Z,90.20
2023-02-06T15:57:38.106Z,83.60
2023-02-06T16:00:08.938Z,74.40
2023-02-06T16:02:37.134Z,80.30
2023-02-06T16:05:05.973Z,71.00
2023-02-06T16:07:35.435Z,82.20
2023-02-06T16:10:07.933Z,74.90
2023-02-06T16:12:36.784Z,84.80
2023-02-06T16:15:40.279Z,87.00
2023-02-06T16:18:28.624Z,170.20
2023-02-06T16:21:16.398Z,176.60
2023-02-06T16:23:59.467Z,214.90
2023-02-06T16:29:14.728Z,157.40
2023-02-06T16:31:43.805Z,133.50
2023-02-06T16:34:38.309Z,112.50
2023-02-06T16:37:11.341Z,106.10
2023-02-06T16:39:41.746Z,103.80
2023-02-06T16:42:35.567Z,93.60
2023-02-06T16:45:17.218Z,98.40
2023-02-06T16:47:44.011Z,166.40
2023-02-06T16:50:14.088Z,192.70
2023-02-06T16:52:47.735Z,186.70
2023-02-06T16:55:20.881Z,183.80
2023-02-06T16:57:52.737Z,163.60
2023-02-06T17:00:24.058Z,180.50
2023-02-06T17:02:52.487Z,162.70
2023-02-06T17:05:21.773Z,143.20
2023-02-06T17:07:48.975Z,134.30
2023-02-06T17:10:24.492Z,145.70
2023-02-06T17:12:52.611Z,145.90
2023-02-06T17:15:20.673Z,226.50
2023-02-06T17:17:48.993Z,194.80
2023-02-06T17:20:31.623Z,167.60
2023-02-06T17:22:58.479Z,154.60
2023-02-06T17:25:25.730Z,164.40
2023-02-06T17:27:52.971Z,194.50
2023-02-06T17:30:22.517Z,227.30
2023-02-06T17:32:49.206Z,223.30
2023-02-06T17:35:16.970Z,192.50
2023-02-06T17:37:43.642Z,172.60
2023-02-06T17:40:22.671Z,180.40
2023-02-06T17:42:49.871Z,173.10
2023-02-06T17:45:16.779Z,184.80
2023-02-06T17:47:43.746Z,178.60
2023-02-06T17:50:17.804Z,169.50
2023-02-06T17:52:44.490Z,180.20
2023-02-06T17:55:11.613Z,188.00
2023-02-06T17:57:38.715Z,196.90
2023-02-06T18:00:12.596Z,214.10
2023-02-06T18:05:07.290Z,198.80
2023-02-06T18:07:35.401Z,176.20
2023-02-06T18:10:01.999Z,164.40
2023-02-06T18:12:28.563Z,133.80
2023-02-06T18:14:55.106Z,145.20
2023-02-06T18:17:22.430Z,174.10
2023-02-06T18:19:50.086Z,187.10
2023-02-06T18:22:21.448Z,216.30
2023-02-06T18:24:49.378Z,306.50
2023-02-06T18:27:18.059Z,303.20
2023-02-06T18:29:51.986Z,292.80
2023-02-06T18:32:19.214Z,273.50
2023-02-06T18:34:46.326Z,294.60
2023-02-06T18:37:13.107Z,299.50
2023-02-06T18:39:39.672Z,304.30
2023-02-06T18:42:24.843Z,304.00
2023-02-06T18:44:51.397Z,283.00
2023-02-06T18:47:19.113Z,273.60
2023-02-06T18:49:46.390Z,259.70
2023-02-06T18:52:13.559Z,257.10
2023-02-06T18:54:40.349Z,248.30
2023-02-06T18:57:07.066Z,257.80
2023-02-06T18:59:34.384Z,258.20
2023-02-06T19:02:01.654Z,266.60
2023-02-06T19:04:28.520Z,279.10
2023-02-06T19:06:55.115Z,262.40
2023-02-06T19:09:21.900Z,280.00
2023-02-06T19:11:51.182Z,239.80
2023-02-06T19:14:23.070Z,204.80
2023-02-06T19:16:51.906Z,210.30
2023-02-06T19:19:21.831Z,217.80
2023-02-06T19:21:48.380Z,228.60
2023-02-06T19:24:19.754Z,213.00
2023-02-06T19:26:46.441Z,202.50
2023-02-06T19:29:19.324Z,198.70
2023-02-06T19:31:50.524Z,185.80
2023-02-06T19:34:17.303Z,204.20
2023-02-06T19:36:44.033Z,188.50
2023-02-06T19:39:12.393Z,192.90
2023-02-06T19:41:39.375Z,207.40
2023-02-06T19:44:11.954Z,191.30
2023-02-06T19:46:39.540Z,164.60
2023-02-06T19:49:08.122Z,171.40
2023-02-06T19:51:40.174Z,167.80
2023-02-06T19:54:07.082Z,188.20
2023-02-06T19:56:43.475Z,166.90
2023-02-06T19:59:18.813Z,148.80
2023-02-06T20:01:50.583Z,152.90
2023-02-06T20:04:19.349Z,141.60
2023-02-06T20:06:46.268Z,136.80
2023-02-06T20:09:14.558Z,125.60
2023-02-06T20:11:42.168Z,102.70
2023-02-06T20:14:10.213Z,114.40
2023-02-06T20:16:39.387Z,105.80
2023-02-06T20:19:14.842Z,100.50
2023-02-06T20:21:45.651Z,93.90
2023-02-06T20:24:20.062Z,100.40
2023-02-06T20:26:49.299Z,94.30
2023-02-06T20:29:37.925Z,91.30
2023-02-06T20:32:06.308Z,91.70
2023-02-06T20:34:34.110Z,99.20
2023-02-06T20:37:01.063Z,89.40
2023-02-06T20:39:28.726Z,97.50
2023-02-06T20:41:55.515Z,97.00
2023-02-06T20:44:22.009Z,93.20
2023-02-06T20:46:48.994Z,93.50
2023-02-06T20:49:23.009Z,93.40
2023-02-06T20:51:49.929Z,86.30
2023-02-06T20:54:18.267Z,95.70
2023-02-06T20:56:45.184Z,90.90
2023-02-06T20:59:14.404Z,92.00
2023-02-06T21:01:41.780Z,103.00
2023-02-06T21:04:11.409Z,100.00
2023-02-06T21:06:38.475Z,93.80
2023-02-06T21:09:06.534Z,96.70
2023-02-06T21:11:39.290Z,90.10
2023-02-06T21:16:34.038Z,82.50
2023-02-06T21:19:01.305Z,93.20
2023-02-06T21:21:28.185Z,87.70
2023-02-06T21:23:57.390Z,81.00
2023-02-06T21:26:25.406Z,90.80
2023-02-06T21:28:53.122Z,90.10
2023-02-06T21:31:24.132Z,87.00
2023-02-06T21:33:51.655Z,97.90
2023-02-06T21:36:20.361Z,105.50
2023-02-06T21:38:46.864Z,96.80
2023-02-06T21:41:16.880Z,104.30
2023-02-06T21:43:44.115Z,107.60
2023-02-06T21:46:12.202Z,99.80
2023-02-06T21:48:39.790Z,97.80
2023-02-06T21:51:12.020Z,99.80
2023-02-06T21:53:39.188Z,97.30
2023-02-06T21:56:19.681Z,103.20
2023-02-06T21:58:47.401Z,102.40
2023-02-06T22:01:21.668Z,106.00
2023-02-06T22:03:48.685Z,92.40
2023-02-06T22:06:15.908Z,100.90
2023-02-06T22:08:47.356Z,98.30
2023-02-06T22:11:24.270Z,98.00
2023-02-06T22:13:52.672Z,94.50
2023-02-06T22:16:21.748Z,96.30
2023-02-06T22:18:49.011Z,99.70
2023-02-06T22:21:19.909Z,95.50
2023-02-06T22:23:48.428Z,102.50
2023-02-06T22:26:17.359Z,110.70
2023-02-06T22:28:44.385Z,102.20
2023-02-06T22:31:23.822Z,103.50
2023-02-06T22:33:51.647Z,98.20
2023-02-06T22:36:22.054Z,105.90
2023-02-06T22:38:57.022Z,106.30
2023-02-06T22:41:23.571Z,102.40
2023-02-06T22:43:50.711Z,104.50
2023-02-06T22:46:38.384Z,99.40
2023-02-06T22:49:07.122Z,95.80
2023-02-06T22:51:34.944Z,98.90
2023-02-06T22:54:01.949Z,101.00
2023-02-06T22:56:36.069Z,98.60
2023-02-06T22:59:09.669Z,104.10
2023-02-06T23:01:40.481Z,96.10
2023-02-06T23:04:12.237Z,104.50
2023-02-06T23:06:39.488Z,97.80
2023-02-06T23:09:08.323Z,105.20
2023-02-06T23:11:35.331Z,106.50
2023-02-06T23:14:05.527Z,102.00
2023-02-06T23:16:34.038Z,100.30
2023-02-06T23:19:03.915Z,102.00
2023-02-06T23:21:33.320Z,105.40
2023-02-06T23:24:00.238Z,106.90
2023-02-06T23:26:27.172Z,114.00
2023-02-06T23:28:57.315Z,117.80
2023-02-06T23:31:25.268Z,123.70
2023-02-06T23:33:52.351Z,111.40
2023-02-06T23:36:22.960Z,126.00
2023-02-06T23:38:50.082Z,116.10
2023-02-06T23:41:19.112Z,122.20
2023-02-06T23:43:56.901Z,123.90
2023-02-06T23:46:24.402Z,119.10
2023-02-06T23:48:51.429Z,115.10
2023-02-06T23:51:19.896Z,122.50
2023-02-06T23:53:47.434Z,127.00
2023-02-06T23:56:18.677Z,118.20
2023-02-06T23:58:45.354Z,114.00
